Time;durP1;ratioP1;P1;durP2;ratioP2;P2;SDS_P1;SDS_P2;PMS_P1;PMS_P2;Temp;Humidity;BMP_temperature;BMP_pressure;BME280_temperature;BME280_humidity;BME280_pressure;Samples;Min_cycle;Max_cycle;Signal;HPM_P1;HPM_P2
2024/01/10 00:01:40;;;;;;;;;;;;;;;;;;107085;1251;62117;-80
2024/01/10 00:04:06;;;;;;;;;;;;;;;;;;107109;1252;60491;-80
2024/01/10 00:06:32;;;;;;;;;;;;;;;;;;107190;1251;61056;-79
2024/01/10 00:08:59;;;;;;;;;;;;;;;;;;107072;1255;59720;-80
2024/01/10 00:11:25;;;;;;;;;;;;;;;;;;107097;1255;60803;-80
2024/01/10 00:13:51;;;;;;;;;;;;;;;;;;107128;1251;59746;-80
2024/01/10 00:16:18;;;;;;;;;;;;;;;;;;107010;1251;61040;-79
2024/01/10 00:18:44;;;;;;;;;;;;;;;;;;107073;1251;59240;-79
2024/01/10 00:21:10;;;;;;;;;;;;;;;;;;107121;1251;59799;-79
2024/01/10 00:23:37;;;;;;;;;;;;;;;;;;107064;1251;61777;-79
2024/01/10 00:26:03;;;;;;;;;;;;;;;;;;107025;1251;59822;-79
2024/01/10 00:28:29;;;;;;;;;;;;;;;;;;107115;1256;60746;-79
2024/01/10 00:30:56;;;;;;;;;;;;;;;;;;107058;1251;59803;-80
2024/01/10 00:33:22;;;;;;;;;;;;;;;;;;107051;1256;60811;-79
2024/01/10 00:35:48;;;;;;;;;;;;;;;;;;107085;1254;59666;-80
2024/01/10 00:38:15;;;;;;;;;;;;;;;;;;107043;1251;60736;-80
2024/01/10 00:40:42;;;;;;;;;;;;;;;;;;107088;1251;62097;-80
2024/01/10 00:43:08;;;;;;;;;;;;;;;;;;107069;1251;61874;-79
2024/01/10 00:45:35;;;;;;;;;;;;;;;;;;106999;1253;60895;-80
2024/01/10 00:48:01;;;;;;;;;;;;;;;;;;107335;1251;60870;-80
2024/01/10 00:50:27;;;;;;;;;;;;;;;;;;109568;1250;59057;-79
2024/01/10 00:52:54;;;;;;;;;;;;;;;;;;109573;1251;58842;-80
2024/01/10 00:55:20;;;;;;;;;;;;;;;;;;109667;1251;58887;-80
2024/01/10 00:57:46;;;;;;;;;;;;;;;;;;109676;1251;58930;-80
2024/01/10 01:00:13;;;;;;;;;;;;;;;;;;109692;1251;58875;-79
2024/01/10 01:02:39;;;;;;;;;;;;;;;;;;109670;1251;58938;-79
2024/01/10 01:05:07;;;;;;;;;;;;;;;;;;109673;1250;59345;-79
2024/01/10 01:07:33;;;;;;;;;;;;;;;;;;109695;1251;58843;-80
2024/01/10 01:09:59;;;;;;;;;;;;;;;;;;109642;1250;59218;-80
2024/01/10 01:12:26;;;;;;;;;;;;;;;;;;109704;1251;58932;-80
2024/01/10 01:14:52;;;;;;;;;;;;;;;;;;109661;1250;59235;-80
2024/01/10 01:17:18;;;;;;;;;;;;;;;;;;109657;1251;59263;-80
2024/01/10 01:19:45;;;;;;;;;;;;;;;;;;109641;1253;59067;-79
2024/01/10 01:22:11;;;;;;;;;;;;;;;;;;109672;1251;59123;-80
2024/01/10 01:24:37;;;;;;;;;;;;;;;;;;109679;1254;59034;-79
2024/01/10 01:27:04;;;;;;;;;;;;;;;;;;109677;1250;58955;-80
2024/01/10 01:29:30;;;;;;;;;;;;;;;;;;109648;1251;59298;-80
2024/01/10 01:31:57;;;;;;;;;;;;;;;;;;109703;1251;58875;-80
2024/01/10 01:34:23;;;;;;;;;;;;;;;;;;109683;1251;58887;-79
2024/01/10 01:36:51;;;;;;;;;;;;;;;;;;107280;1254;59761;-79
2024/01/10 01:39:17;;;;;;;;;;;;;;;;;;107082;1251;62023;-79
2024/01/10 01:41:44;;;;;;;;;;;;;;;;;;109230;1256;59221;-79
2024/01/10 01:44:10;;;;;;;;;;;;;;;;;;109580;1251;59270;-80
2024/01/10 01:46:37;;;;;;;;;;;;;;;;;;109533;1255;58867;-80
2024/01/10 01:49:03;;;;;;;;;;;;;;;;;;109520;1251;58926;-80
2024/01/10 01:51:29;;;;;;;;;;;;;;;;;;109520;1251;59110;-80
2024/01/10 01:53:55;;;;;;;;;;;;;;;;;;109610;1251;58852;-80
2024/01/10 01:56:22;;;;;;;;;;;;;;;;;;108442;1251;59449;-80
2024/01/10 01:58:48;;;;;;;;;;;;;;;;;;107101;1255;59814;-79
2024/01/10 02:01:14;;;;;;;;;;;;;;;;;;107070;1255;60915;-79
2024/01/10 02:03:41;;;;;;;;;;;;;;;;;;107084;1251;61998;-80
2024/01/10 02:06:07;;;;;;;;;;;;;;;;;;107113;1251;59928;-79
2024/01/10 02:08:34;;;;;;;;;;;;;;;;;;107174;1252;60802;-80
2024/01/10 02:11:00;;;;;;;;;;;;;;;;;;107062;1256;60868;-80
2024/01/10 02:13:26;;;;;;;;;;;;;;;;;;107074;1251;59772;-80
2024/01/10 02:15:54;;;;;;;;;;;;;;;;;;107052;1251;60212;-79
2024/01/10 02:18:20;;;;;;;;;;;;;;;;;;107083;1251;60868;-79
2024/01/10 02:20:46;;;;;;;;;;;;;;;;;;107089;1255;62059;-79
2024/01/10 02:23:13;;;;;;;;;;;;;;;;;;106878;1256;59939;-80
2024/01/10 02:25:39;;;;;;;;;;;;;;;;;;107103;1251;59767;-79
2024/01/10 02:28:05;;;;;;;;;;;;;;;;;;107080;1251;60862;-79
2024/01/10 02:30:32;;;;;;;;;;;;;;;;;;107107;1252;59814;-79
2024/01/10 02:32:58;;;;;;;;;;;;;;;;;;107055;1254;59763;-80
2024/01/10 02:35:26;;;;;;;;;;;;;;;;;;107048;1254;59415;-80
2024/01/10 02:37:54;;;;;;;;;;;;;;;;;;107077;1251;59842;-79
2024/01/10 02:40:20;;;;;;;;;;;;;;;;;;107063;1252;61998;-80
2024/01/10 02:42:46;;;;;;;;;;;;;;;;;;107085;1254;59749;-79
2024/01/10 02:45:13;;;;;;;;;;;;;;;;;;107069;1251;60653;-79
2024/01/10 02:47:39;;;;;;;;;;;;;;;;;;106992;1255;61609;-79
2024/01/10 02:50:05;;;;;;;;;;;;;;;;;;106985;1251;62104;-79
2024/01/10 02:52:32;;;;;;;;;;;;;;;;;;107005;1251;59893;-80
2024/01/10 02:54:58;;;;;;;;;;;;;;;;;;106967;1251;62014;-80
2024/01/10 02:57:24;;;;;;;;;;;;;;;;;;106968;1253;59832;-80
2024/01/10 02:59:50;;;;;;;;;;;;;;;;;;107005;1251;60849;-79
2024/01/10 03:02:17;;;;;;;;;;;;;;;;;;107038;1251;60832;-79
2024/01/10 03:04:44;;;;;;;;;;;;;;;;;;107030;1251;59822;-80
2024/01/10 03:07:10;;;;;;;;;;;;;;;;;;106988;1251;61644;-79
2024/01/10 03:09:37;;;;;;;;;;;;;;;;;;109552;1251;59054;-80
2024/01/10 03:12:03;;;;;;;;;;;;;;;;;;109541;1251;58992;-80
2024/01/10 03:14:30;;;;;;;;;;;;;;;;;;109504;1251;59219;-80
2024/01/10 03:16:56;;;;;;;;;;;;;;;;;;109543;1251;58886;-79
2024/01/10 03:19:22;;;;;;;;;;;;;;;;;;109572;1251;58954;-80
2024/01/10 03:21:49;;;;;;;;;;;;;;;;;;109567;1251;59172;-80
2024/01/10 03:24:15;;;;;;;;;;;;;;;;;;108548;1251;60019;-80
2024/01/10 03:26:42;;;;;;;;;;;;;;;;;;107004;1251;59986;-79
2024/01/10 03:29:08;;;;;;;;;;;;;;;;;;106953;1251;60671;-80
2024/01/10 03:31:34;;;;;;;;;;;;;;;;;;106933;1251;59865;-79
2024/01/10 03:34:01;;;;;;;;;;;;;;;;;;106969;1251;60599;-80
2024/01/10 03:36:27;;;;;;;;;;;;;;;;;;106883;1251;59179;-80
2024/01/10 03:38:53;;;;;;;;;;;;;;;;;;106953;1251;59171;-80
2024/01/10 03:41:20;;;;;;;;;;;;;;;;;;106961;1251;62142;-79
2024/01/10 03:43:46;;;;;;;;;;;;;;;;;;106943;1254;59877;-80
2024/01/10 03:46:13;;;;;;;;;;;;;;;;;;107000;1251;59880;-80
2024/01/10 03:48:47;;;;;;;;;;;;;;;;;;107014;1253;60795;-79
2024/01/10 03:51:13;;;;;;;;;;;;;;;;;;106940;1251;60771;-80
2024/01/10 03:53:40;;;;;;;;;;;;;;;;;;107011;1251;60708;-79
2024/01/10 03:56:07;;;;;;;;;;;;;;;;;;107094;1251;59684;-80
2024/01/10 03:58:33;;;;;;;;;;;;;;;;;;107028;1251;62042;-80
2024/01/10 04:00:59;;;;;;;;;;;;;;;;;;107060;1251;61871;-79
2024/01/10 04:03:26;;;;;;;;;;;;;;;;;;107051;1251;60739;-79
2024/01/10 04:05:52;;;;;;;;;;;;;;;;;;107070;1251;59931;-80
2024/01/10 04:08:18;;;;;;;;;;;;;;;;;;107159;1254;59878;-79
2024/01/10 04:10:45;;;;;;;;;;;;;;;;;;107082;1251;59737;-80
2024/01/10 04:13:11;;;;;;;;;;;;;;;;;;107122;1254;60797;-80
2024/01/10 04:15:37;;;;;;;;;;;;;;;;;;108429;1251;60903;-80
2024/01/10 04:18:04;;;;;;;;;;;;;;;;;;107246;1251;59899;-79
2024/01/10 04:20:30;;;;;;;;;;;;;;;;;;108269;1251;59164;-79
2024/01/10 04:22:56;;;;;;;;;;;;;;;;;;109654;1251;58900;-79
2024/01/10 04:25:23;;;;;;;;;;;;;;;;;;109668;1250;58860;-79
2024/01/10 04:27:50;;;;;;;;;;;;;;;;;;109643;1251;58930;-79
2024/01/10 04:30:16;;;;;;;;;;;;;;;;;;109649;1251;59249;-80
2024/01/10 04:32:43;;;;;;;;;;;;;;;;;;108633;1251;59751;-80
2024/01/10 04:35:09;;;;;;;;;;;;;;;;;;107054;1251;59577;-80
2024/01/10 04:37:36;;;;;;;;;;;;;;;;;;107055;1254;60799;-80
2024/01/10 04:40:03;;;;;;;;;;;;;;;;;;107068;1254;61896;-80
2024/01/10 04:42:29;;;;;;;;;;;;;;;;;;107004;1251;59807;-79
2024/01/10 04:44:56;;;;;;;;;;;;;;;;;;106983;1251;60733;-79
2024/01/10 04:47:22;;;;;;;;;;;;;;;;;;109197;1251;59735;-80
2024/01/10 04:49:48;;;;;;;;;;;;;;;;;;109530;1251;58880;-80
2024/01/10 04:52:15;;;;;;;;;;;;;;;;;;108615;1251;60027;-80
2024/01/10 04:54:41;;;;;;;;;;;;;;;;;;106972;1251;61993;-80
2024/01/10 04:57:07;;;;;;;;;;;;;;;;;;107004;1251;61032;-79
2024/01/10 04:59:34;;;;;;;;;;;;;;;;;;107004;1251;60679;-80
2024/01/10 05:02:00;;;;;;;;;;;;;;;;;;108834;1250;59782;-80
2024/01/10 05:04:26;;;;;;;;;;;;;;;;;;109540;1251;59211;-79
2024/01/10 05:06:53;;;;;;;;;;;;;;;;;;109529;1251;59183;-80
2024/01/10 05:09:19;;;;;;;;;;;;;;;;;;109523;1251;58853;-79
2024/01/10 05:11:48;;;;;;;;;;;;;;;;;;109525;1251;58846;-79
2024/01/10 05:14:14;;;;;;;;;;;;;;;;;;109520;1250;58881;-80
2024/01/10 05:16:40;;;;;;;;;;;;;;;;;;109547;1250;58901;-80
2024/01/10 05:19:07;;;;;;;;;;;;;;;;;;109551;1250;59118;-80
2024/01/10 05:21:33;;;;;;;;;;;;;;;;;;108757;1250;59064;-79
2024/01/10 05:23:59;;;;;;;;;;;;;;;;;;107056;1251;61616;-80
2024/01/10 05:26:26;;;;;;;;;;;;;;;;;;106969;1251;61996;-80
2024/01/10 05:28:52;;;;;;;;;;;;;;;;;;106954;1251;60155;-79
2024/01/10 05:31:18;;;;;;;;;;;;;;;;;;107005;1251;60897;-79
2024/01/10 05:33:45;;;;;;;;;;;;;;;;;;107013;1251;60902;-79
2024/01/10 05:36:11;;;;;;;;;;;;;;;;;;106987;1254;60107;-80
2024/01/10 05:38:37;;;;;;;;;;;;;;;;;;107025;1251;59365;-79
2024/01/10 05:41:04;;;;;;;;;;;;;;;;;;106939;1251;60813;-80
2024/01/10 05:43:31;;;;;;;;;;;;;;;;;;107036;1251;60972;-79
2024/01/10 05:45:59;;;;;;;;;;;;;;;;;;107060;1251;59792;-80
2024/01/10 05:48:25;;;;;;;;;;;;;;;;;;107024;1251;59818;-79
2024/01/10 05:50:51;;;;;;;;;;;;;;;;;;107074;1250;60937;-79
2024/01/10 05:53:18;;;;;;;;;;;;;;;;;;107107;1251;59808;-79
2024/01/10 05:55:44;;;;;;;;;;;;;;;;;;107167;1251;61452;-79
2024/01/10 05:58:11;;;;;;;;;;;;;;;;;;107024;1251;60962;-79
2024/01/10 06:00:37;;;;;;;;;;;;;;;;;;107048;1251;59920;-79
2024/01/10 06:03:03;;;;;;;;;;;;;;;;;;107117;1251;60887;-79
2024/01/10 06:05:31;;;;;;;;;;;;;;;;;;107657;1254;60866;-79
2024/01/10 06:07:57;;;;;;;;;;;;;;;;;;107342;1250;59864;-79
2024/01/10 06:10:24;;;;;;;;;;;;;;;;;;107063;1253;62688;-79
2024/01/10 06:12:50;;;;;;;;;;;;;;;;;;107003;1251;60941;-79
2024/01/10 06:15:16;;;;;;;;;;;;;;;;;;107068;1251;60650;-80
2024/01/10 06:17:43;;;;;;;;;;;;;;;;;;106898;1251;59871;-79
2024/01/10 06:20:09;;;;;;;;;;;;;;;;;;107040;1251;59806;-79
2024/01/10 06:22:35;;;;;;;;;;;;;;;;;;107077;1251;61768;-79
2024/01/10 06:25:02;;;;;;;;;;;;;;;;;;106928;1251;60748;-80
2024/01/10 06:27:30;;;;;;;;;;;;;;;;;;107003;1251;59836;-79
2024/01/10 06:29:56;;;;;;;;;;;;;;;;;;106977;1251;60869;-80
2024/01/10 06:32:22;;;;;;;;;;;;;;;;;;106987;1252;59259;-80
2024/01/10 06:34:49;;;;;;;;;;;;;;;;;;108986;1251;218683;-80
2024/01/10 06:37:15;;;;;;;;;;;;;;;;;;109626;1249;58833;-80
2024/01/10 06:39:43;;;;;;;;;;;;;;;;;;109650;1249;59153;-80
2024/01/10 06:42:11;;;;;;;;;;;;;;;;;;107379;1251;60661;-79
2024/01/10 06:44:38;;;;;;;;;;;;;;;;;;107078;1251;60800;-79
2024/01/10 06:47:04;;;;;;;;;;;;;;;;;;107052;1249;59820;-79
2024/01/10 06:49:30;;;;;;;;;;;;;;;;;;107105;1249;59774;-80
2024/01/10 06:51:57;;;;;;;;;;;;;;;;;;107196;1251;59525;-79
2024/01/10 06:54:23;;;;;;;;;;;;;;;;;;107110;1251;60874;-80
2024/01/10 06:56:49;;;;;;;;;;;;;;;;;;107066;1251;59820;-80
2024/01/10 06:59:16;;;;;;;;;;;;;;;;;;107028;1254;59789;-80
2024/01/10 07:01:42;;;;;;;;;;;;;;;;;;107129;1251;59915;-80
2024/01/10 07:04:08;;;;;;;;;;;;;;;;;;107880;1251;59962;-80
2024/01/10 07:06:35;;;;;;;;;;;;;;;;;;107095;1251;59810;-81
2024/01/10 07:09:01;;;;;;;;;;;;;;;;;;107094;1251;60908;-80
2024/01/10 07:11:28;;;;;;;;;;;;;;;;;;107196;1253;60876;-80
2024/01/10 07:13:55;;;;;;;;;;;;;;;;;;107166;1251;59864;-80
2024/01/10 07:16:22;;;;;;;;;;;;;;;;;;107104;1251;59791;-79
2024/01/10 07:18:51;;;;;;;;;;;;;;;;;;107036;1251;59874;-79
2024/01/10 07:21:17;;;;;;;;;;;;;;;;;;107193;1249;59761;-80
2024/01/10 07:23:44;;;;;;;;;;;;;;;;;;107269;1251;60885;-80
2024/01/10 07:26:10;;;;;;;;;;;;;;;;;;107231;1251;59828;-80
2024/01/10 07:28:37;;;;;;;;;;;;;;;;;;107180;1251;59836;-79
2024/01/10 07:31:04;;;;;;;;;;;;;;;;;;108459;1253;60894;-79
2024/01/10 07:33:31;;;;;;;;;;;;;;;;;;109413;1251;58970;-80
2024/01/10 07:35:57;;;;;;;;;;;;;;;;;;109494;1251;59150;-80
2024/01/10 07:38:23;;;;;;;;;;;;;;;;;;108709;1251;59268;-79
2024/01/10 07:40:49;;;;;;;;;;;;;;;;;;107339;1251;61542;-80
2024/01/10 07:43:16;;;;;;;;;;;;;;;;;;107351;1251;60951;-80
2024/01/10 07:45:42;;;;;;;;;;;;;;;;;;107161;1253;59817;-79
2024/01/10 07:48:08;;;;;;;;;;;;;;;;;;107278;1251;59718;-79
2024/01/10 07:50:35;;;;;;;;;;;;;;;;;;107372;1251;60616;-80
2024/01/10 07:53:01;;;;;;;;;;;;;;;;;;107355;1251;61787;-80
2024/01/10 07:55:31;;;;;;;;;;;;;;;;;;107204;1255;60925;-80
2024/01/10 07:57:57;;;;;;;;;;;;;;;;;;107283;1252;60879;-79
2024/01/10 08:00:24;;;;;;;;;;;;;;;;;;107322;1253;59562;-79
2024/01/10 08:02:50;;;;;;;;;;;;;;;;;;107321;1253;62003;-80
2024/01/10 08:05:17;;;;;;;;;;;;;;;;;;107244;1251;59580;-80
2024/01/10 08:07:43;;;;;;;;;;;;;;;;;;107237;1253;59767;-79
2024/01/10 08:10:09;;;;;;;;;;;;;;;;;;107302;1251;59389;-80
2024/01/10 08:12:36;;;;;;;;;;;;;;;;;;107418;1251;59878;-79
2024/01/10 08:15:02;;;;;;;;;;;;;;;;;;107264;1251;59857;-80
2024/01/10 08:17:28;;;;;;;;;;;;;;;;;;107182;1250;60850;-80
2024/01/10 08:19:55;;;;;;;;;;;;;;;;;;107361;1250;60737;-80
2024/01/10 08:22:22;;;;;;;;;;;;;;;;;;107305;1251;59845;-79
2024/01/10 08:24:49;;;;;;;;;;;;;;;;;;108996;1253;59136;-80
2024/01/10 08:27:17;;;;;;;;;;;;;;;;;;109536;1250;58867;-79
2024/01/10 08:29:44;;;;;;;;;;;;;;;;;;109620;1249;58904;-79
2024/01/10 08:32:10;;;;;;;;;;;;;;;;;;109492;1250;60279;-80
2024/01/10 08:34:37;;;;;;;;;;;;;;;;;;109568;1251;58963;-80
2024/01/10 08:37:03;;;;;;;;;;;;;;;;;;109605;1251;58793;-80
2024/01/10 08:39:30;;;;;;;;;;;;;;;;;;109643;1250;58912;-80
2024/01/10 08:41:56;;;;;;;;;;;;;;;;;;109484;1251;58969;-80
2024/01/10 08:44:23;;;;;;;;;;;;;;;;;;109498;1251;59280;-80
2024/01/10 08:46:53;;;;;;;;;;;;;;;;;;109517;1251;59144;-80
2024/01/10 08:49:19;;;;;;;;;;;;;;;;;;109534;1250;58912;-80
2024/01/10 08:51:46;;;;;;;;;;;;;;;;;;109475;1251;59144;-80
2024/01/10 08:54:16;;;;;;;;;;;;;;;;;;108510;1251;60886;-80
2024/01/10 08:56:43;;;;;;;;;;;;;;;;;;107384;1250;61919;-80
2024/01/10 08:59:10;;;;;;;;;;;;;;;;;;107264;1251;59757;-78
2024/01/10 09:01:38;;;;;;;;;;;;;;;;;;107411;1251;60910;-78
2024/01/10 09:04:05;;;;;;;;;;;;;;;;;;108503;1250;62116;-78
2024/01/10 09:06:31;;;;;;;;;;;;;;;;;;109561;1251;59128;-78
2024/01/10 09:08:57;;;;;;;;;;;;;;;;;;109727;1249;59020;-78
2024/01/10 09:11:24;;;;;;;;;;;;;;;;;;109512;1251;58821;-78
2024/01/10 09:13:50;;;;;;;;;;;;;;;;;;109513;1251;58994;-78
2024/01/10 09:16:18;;;;;;;;;;;;;;;;;;109420;1251;58778;-78
2024/01/10 09:18:44;;;;;;;;;;;;;;;;;;109575;1251;59298;-78
2024/01/10 09:21:11;;;;;;;;;;;;;;;;;;109540;1250;59107;-78
2024/01/10 09:23:38;;;;;;;;;;;;;;;;;;107774;1251;60527;-79
2024/01/10 09:26:04;;;;;;;;;;;;;;;;;;107481;1251;59779;-79
2024/01/10 09:28:30;;;;;;;;;;;;;;;;;;107363;1251;59829;-78
2024/01/10 09:30:57;;;;;;;;;;;;;;;;;;107899;1254;59899;-78
2024/01/10 09:33:25;;;;;;;;;;;;;;;;;;108312;1250;59212;-78
2024/01/10 09:35:51;;;;;;;;;;;;;;;;;;107415;1250;59777;-78
2024/01/10 09:38:17;;;;;;;;;;;;;;;;;;107253;1252;59867;-78
2024/01/10 09:40:44;;;;;;;;;;;;;;;;;;107696;1250;59723;-79
2024/01/10 09:43:10;;;;;;;;;;;;;;;;;;108032;1253;59919;-81
2024/01/10 09:45:36;;;;;;;;;;;;;;;;;;106983;1251;59832;-78
2024/01/10 09:48:03;;;;;;;;;;;;;;;;;;107169;1250;60910;-79
2024/01/10 09:50:29;;;;;;;;;;;;;;;;;;107456;1251;59821;-79
2024/01/10 09:52:55;;;;;;;;;;;;;;;;;;109376;1253;58979;-79
2024/01/10 09:55:22;;;;;;;;;;;;;;;;;;109568;1251;59044;-79
2024/01/10 09:57:49;;;;;;;;;;;;;;;;;;109459;1251;59116;-79
2024/01/10 10:00:15;;;;;;;;;;;;;;;;;;109478;1251;59429;-79
2024/01/10 10:02:42;;;;;;;;;;;;;;;;;;109485;1251;59036;-79
2024/01/10 10:05:08;;;;;;;;;;;;;;;;;;107909;1251;59786;-79
2024/01/10 10:07:34;;;;;;;;;;;;;;;;;;107022;1251;59762;-79
2024/01/10 10:10:01;;;;;;;;;;;;;;;;;;107105;1251;59893;-78
2024/01/10 10:12:27;;;;;;;;;;;;;;;;;;107254;1254;59821;-78
2024/01/10 10:14:53;;;;;;;;;;;;;;;;;;107037;1251;60908;-79
2024/01/10 10:17:20;;;;;;;;;;;;;;;;;;107111;1250;59765;-79
2024/01/10 10:19:47;;;;;;;;;;;;;;;;;;107113;1250;59827;-79
2024/01/10 10:22:14;;;;;;;;;;;;;;;;;;109216;1249;60856;-78
2024/01/10 10:24:41;;;;;;;;;;;;;;;;;;107057;1251;59424;-79
2024/01/10 10:27:07;;;;;;;;;;;;;;;;;;107118;1252;59333;-79
2024/01/10 10:29:33;;;;;;;;;;;;;;;;;;106951;1251;59837;-79
2024/01/10 10:32:00;;;;;;;;;;;;;;;;;;107573;1251;59776;-78
2024/01/10 10:34:26;;;;;;;;;;;;;;;;;;107430;1251;60952;-79
2024/01/10 10:36:53;;;;;;;;;;;;;;;;;;108253;1251;59824;-79
2024/01/10 10:39:19;;;;;;;;;;;;;;;;;;107460;1251;59792;-79
2024/01/10 10:41:45;;;;;;;;;;;;;;;;;;108658;1251;59734;-79
2024/01/10 10:44:12;;;;;;;;;;;;;;;;;;107257;1251;59752;-79
2024/01/10 10:46:38;;;;;;;;;;;;;;;;;;107304;1251;60836;-79
2024/01/10 10:49:05;;;;;;;;;;;;;;;;;;106968;1250;59824;-79
2024/01/10 10:51:31;;;;;;;;;;;;;;;;;;108394;1251;59818;-78
2024/01/10 10:53:58;;;;;;;;;;;;;;;;;;108299;1251;60948;-78
2024/01/10 10:56:24;;;;;;;;;;;;;;;;;;107376;1250;59858;-78
2024/01/10 10:58:50;;;;;;;;;;;;;;;;;;106910;1251;59246;-79
2024/01/10 11:01:17;;;;;;;;;;;;;;;;;;107337;1251;60745;-78
2024/01/10 11:03:44;;;;;;;;;;;;;;;;;;107321;1251;59904;-79
2024/01/10 11:06:11;;;;;;;;;;;;;;;;;;107978;1251;59819;-78
2024/01/10 11:08:37;;;;;;;;;;;;;;;;;;107508;1251;60507;-78
2024/01/10 11:11:03;;;;;;;;;;;;;;;;;;107849;1251;59697;-79
2024/01/10 11:13:30;;;;;;;;;;;;;;;;;;108733;1251;60933;-78
2024/01/10 11:15:56;;;;;;;;;;;;;;;;;;106951;1253;60891;-79
2024/01/10 11:18:23;;;;;;;;;;;;;;;;;;107348;1251;59245;-79
2024/01/10 11:20:49;;;;;;;;;;;;;;;;;;107383;1251;59825;-78
2024/01/10 11:23:15;;;;;;;;;;;;;;;;;;107290;1253;59861;-79
2024/01/10 11:25:42;;;;;;;;;;;;;;;;;;107195;1251;59997;-78
2024/01/10 11:28:08;;;;;;;;;;;;;;;;;;107313;1252;59918;-79
2024/01/10 11:30:35;;;;;;;;;;;;;;;;;;107503;1251;59888;-79
2024/01/10 11:33:02;;;;;;;;;;;;;;;;;;108605;1251;59213;-78
2024/01/10 11:35:31;;;;;;;;;;;;;;;;;;107249;1251;60657;-78
2024/01/10 11:37:58;;;;;;;;;;;;;;;;;;107311;1250;59353;-79
2024/01/10 11:40:25;;;;;;;;;;;;;;;;;;107302;1251;60555;-78
2024/01/10 11:42:51;;;;;;;;;;;;;;;;;;107252;1251;62804;-78
2024/01/10 11:45:17;;;;;;;;;;;;;;;;;;107334;1251;60634;-78
2024/01/10 11:47:44;;;;;;;;;;;;;;;;;;107240;1251;60665;-78
2024/01/10 11:50:10;;;;;;;;;;;;;;;;;;107306;1251;59683;-79
2024/01/10 11:52:36;;;;;;;;;;;;;;;;;;107441;1249;60661;-78
2024/01/10 11:55:04;;;;;;;;;;;;;;;;;;107200;1251;60929;-79
2024/01/10 11:57:34;;;;;;;;;;;;;;;;;;63515;1251;1005589;-79
2024/01/10 12:00:01;;;;;;;;;;;;;;;;;;53052;1250;1005283;-79
2024/01/10 12:02:28;;;;;;;;;;;;;;;;;;53170;1254;1005754;-79
2024/01/10 12:04:55;;;;;;;;;;;;;;;;;;53083;1251;1056921;-78
2024/01/10 12:07:21;;;;;;;;;;;;;;;;;;53198;1251;1006000;-79
2024/01/10 12:09:48;;;;;;;;;;;;;;;;;;53044;1254;1057919;-79
2024/01/10 12:12:14;;;;;;;;;;;;;;;;;;53099;1253;1005111;-78
2024/01/10 12:14:41;;;;;;;;;;;;;;;;;;53067;1251;1038613;-79
2024/01/10 12:17:08;;;;;;;;;;;;;;;;;;52897;1251;1005170;-78
2024/01/10 12:19:35;;;;;;;;;;;;;;;;;;52900;1253;1045763;-78
2024/01/10 12:22:02;;;;;;;;;;;;;;;;;;53022;1251;1005954;-78
2024/01/10 12:24:32;;;;;;;;;;;;;;;;;;52933;1253;1060347;-78
2024/01/10 12:26:58;;;;;;;;;;;;;;;;;;52898;1251;1005364;-79
2024/01/10 12:29:25;;;;;;;;;;;;;;;;;;52953;1253;1005361;-78
2024/01/10 12:31:53;;;;;;;;;;;;;;;;;;52971;1251;1056825;-79
2024/01/10 12:34:21;;;;;;;;;;;;;;;;;;52948;1254;1005190;-78
2024/01/10 12:36:48;;;;;;;;;;;;;;;;;;52996;1251;1057452;-78
2024/01/10 12:39:14;;;;;;;;;;;;;;;;;;52891;1251;1004939;-79
2024/01/10 12:41:41;;;;;;;;;;;;;;;;;;52978;1251;1038132;-79
2024/01/10 12:44:07;;;;;;;;;;;;;;;;;;52998;1254;1005004;-78
2024/01/10 12:46:34;;;;;;;;;;;;;;;;;;53002;1256;1046192;-79
2024/01/10 12:49:00;;;;;;;;;;;;;;;;;;52904;1251;1003467;-79
2024/01/10 12:51:27;;;;;;;;;;;;;;;;;;52987;1251;1062339;-78
2024/01/10 12:53:53;;;;;;;;;;;;;;;;;;52900;1251;1004904;-79
2024/01/10 12:56:20;;;;;;;;;;;;;;;;;;52980;1252;1057097;-79
2024/01/10 12:58:46;;;;;;;;;;;;;;;;;;52932;1251;1005897;-79
2024/01/10 13:01:13;;;;;;;;;;;;;;;;;;53046;1253;1058200;-79
2024/01/10 13:03:39;;;;;;;;;;;;;;;;;;52935;1253;1005222;-78
2024/01/10 13:06:06;;;;;;;;;;;;;;;;;;52982;1254;1037741;-79
2024/01/10 13:08:32;;;;;;;;;;;;;;;;;;52925;1251;1005512;-80
2024/01/10 13:11:04;;;;;;;;;;;;;;;;;;53750;1251;1047011;-79
2024/01/10 13:13:30;;;;;;;;;;;;;;;;;;53618;1251;1045087;-79
2024/01/10 13:15:57;;;;;;;;;;;;;;;;;;52995;1253;1005260;-79
2024/01/10 13:18:23;;;;;;;;;;;;;;;;;;53025;1251;1060270;-79
2024/01/10 13:20:50;;;;;;;;;;;;;;;;;;53035;1252;1005507;-78
2024/01/10 13:23:18;;;;;;;;;;;;;;;;;;52943;1253;1056319;-78
2024/01/10 13:25:45;;;;;;;;;;;;;;;;;;53023;1251;1005923;-78
2024/01/10 13:28:12;;;;;;;;;;;;;;;;;;52959;1254;1058555;-79
2024/01/10 13:30:41;;;;;;;;;;;;;;;;;;52927;1254;1005398;-78
2024/01/10 13:33:09;;;;;;;;;;;;;;;;;;53033;1251;1039227;-78
2024/01/10 13:35:35;;;;;;;;;;;;;;;;;;52994;1251;1006562;-78
2024/01/10 13:38:02;;;;;;;;;;;;;;;;;;52988;1251;1045020;-79
2024/01/10 13:40:28;;;;;;;;;;;;;;;;;;52940;1252;1006464;-78
2024/01/10 13:42:55;;;;;;;;;;;;;;;;;;52973;1250;1059865;-79
2024/01/10 13:45:21;;;;;;;;;;;;;;;;;;53009;1251;1005838;-79
2024/01/10 13:47:51;;;;;;;;;;;;;;;;;;52916;1251;1059983;-78
2024/01/10 13:50:18;;;;;;;;;;;;;;;;;;52994;1253;1005292;-79
2024/01/10 13:52:45;;;;;;;;;;;;;;;;;;53054;1253;1005299;-78
2024/01/10 13:55:11;;;;;;;;;;;;;;;;;;52961;1251;1058199;-79
2024/01/10 13:57:38;;;;;;;;;;;;;;;;;;52971;1255;1005161;-78
2024/01/10 14:00:06;;;;;;;;;;;;;;;;;;52937;1251;1038804;-79
2024/01/10 14:02:35;;;;;;;;;;;;;;;;;;52916;1253;1006193;-78
2024/01/10 14:05:05;;;;;;;;;;;;;;;;;;52956;1251;1005017;-79
2024/01/10 14:07:32;;;;;;;;;;;;;;;;;;52960;1253;1003839;-79
2024/01/10 14:09:59;;;;;;;;;;;;;;;;;;52892;1251;1006149;-79
2024/01/10 14:12:25;;;;;;;;;;;;;;;;;;53044;1252;1044923;-78
2024/01/10 14:14:52;;;;;;;;;;;;;;;;;;53044;1252;1004688;-79
2024/01/10 14:17:19;;;;;;;;;;;;;;;;;;53019;1254;1061548;-79
2024/01/10 14:19:45;;;;;;;;;;;;;;;;;;53047;1253;1004972;-79
2024/01/10 14:22:12;;;;;;;;;;;;;;;;;;53136;1253;1058599;-78
2024/01/10 14:24:38;;;;;;;;;;;;;;;;;;53143;1251;1005395;-78
2024/01/10 14:27:05;;;;;;;;;;;;;;;;;;53185;1253;1058763;-79
2024/01/10 14:29:33;;;;;;;;;;;;;;;;;;53010;1253;1005641;-78
2024/01/10 14:31:59;;;;;;;;;;;;;;;;;;52958;1255;1039326;-79
2024/01/10 14:34:26;;;;;;;;;;;;;;;;;;52934;1253;1005539;-79
2024/01/10 14:36:52;;;;;;;;;;;;;;;;;;52941;1253;1045830;-79
2024/01/10 14:39:20;;;;;;;;;;;;;;;;;;52863;1255;1005553;-78
2024/01/10 14:41:47;;;;;;;;;;;;;;;;;;53222;1251;1060346;-79
2024/01/10 14:44:14;;;;;;;;;;;;;;;;;;52858;1253;1005166;-79
2024/01/10 14:46:40;;;;;;;;;;;;;;;;;;52939;1253;1057752;-79
2024/01/10 14:49:07;;;;;;;;;;;;;;;;;;52927;1256;1005614;-78
2024/01/10 14:51:33;;;;;;;;;;;;;;;;;;52988;1253;1057551;-78
2024/01/10 14:54:00;;;;;;;;;;;;;;;;;;52872;1253;1004849;-78
2024/01/10 14:56:26;;;;;;;;;;;;;;;;;;52932;1250;1038102;-79
2024/01/10 14:58:53;;;;;;;;;;;;;;;;;;52877;1254;1004805;-79
2024/01/10 15:01:20;;;;;;;;;;;;;;;;;;53022;1253;1045638;-78
2024/01/10 15:03:46;;;;;;;;;;;;;;;;;;52980;1254;1005432;-78
2024/01/10 15:06:13;;;;;;;;;;;;;;;;;;52999;1251;1060909;-78
2024/01/10 15:08:40;;;;;;;;;;;;;;;;;;53025;1253;1005111;-79
2024/01/10 15:11:06;;;;;;;;;;;;;;;;;;53133;1251;1057097;-79
2024/01/10 15:13:33;;;;;;;;;;;;;;;;;;53050;1250;1005182;-79
2024/01/10 15:15:59;;;;;;;;;;;;;;;;;;53004;1253;1058016;-78
2024/01/10 15:18:25;;;;;;;;;;;;;;;;;;52877;1253;1005541;-78
2024/01/10 15:20:52;;;;;;;;;;;;;;;;;;53032;1251;1038009;-79
2024/01/10 15:23:19;;;;;;;;;;;;;;;;;;53080;1252;1006283;-79
2024/01/10 15:25:45;;;;;;;;;;;;;;;;;;52927;1251;1046458;-79
2024/01/10 15:28:12;;;;;;;;;;;;;;;;;;52903;1250;1005399;-79
2024/01/10 15:30:38;;;;;;;;;;;;;;;;;;53022;1252;1061112;-80
2024/01/10 15:33:05;;;;;;;;;;;;;;;;;;52897;1253;1004965;-78
2024/01/10 15:35:31;;;;;;;;;;;;;;;;;;52759;1253;1057563;-78
2024/01/10 15:37:58;;;;;;;;;;;;;;;;;;52852;1252;1004844;-78
2024/01/10 15:40:24;;;;;;;;;;;;;;;;;;53045;1255;1058512;-78
2024/01/10 15:42:51;;;;;;;;;;;;;;;;;;52936;1251;1005179;-79
2024/01/10 15:45:17;;;;;;;;;;;;;;;;;;52749;1253;1038385;-78
2024/01/10 15:47:44;;;;;;;;;;;;;;;;;;52818;1253;1005418;-79
2024/01/10 15:50:10;;;;;;;;;;;;;;;;;;53039;1250;1045914;-78
2024/01/10 15:52:37;;;;;;;;;;;;;;;;;;52967;1253;1005867;-78
2024/01/10 15:55:03;;;;;;;;;;;;;;;;;;52962;1253;1060979;-79
2024/01/10 15:57:30;;;;;;;;;;;;;;;;;;52955;1253;1005238;-78
2024/01/10 15:59:59;;;;;;;;;;;;;;;;;;52960;1255;1056908;-78
2024/01/10 16:02:31;;;;;;;;;;;;;;;;;;52785;1253;1056735;-78
2024/01/10 16:04:58;;;;;;;;;;;;;;;;;;53007;1251;1005598;-79
2024/01/10 16:07:24;;;;;;;;;;;;;;;;;;52876;1253;1005558;-78
2024/01/10 16:09:51;;;;;;;;;;;;;;;;;;52781;1250;1058254;-78
2024/01/10 16:12:17;;;;;;;;;;;;;;;;;;52794;1253;1005463;-78
2024/01/10 16:14:44;;;;;;;;;;;;;;;;;;52872;1251;1039264;-79
2024/01/10 16:17:10;;;;;;;;;;;;;;;;;;52837;1251;1004782;-79
2024/01/10 16:19:37;;;;;;;;;;;;;;;;;;52851;1251;1046349;-78